• Join FlightAware (Why Join?)
  • Login
  • US Flag 
03:56AM EDT


 

Airport Tracker/Info


-or-


 

Live Flight TrackerFlight Track Log ✈ N2229F ✈ 13-Sep-2013 ✈ N07 - KACY

Flight Track Log - Related Links

Times and Time Zones

All times are in EDT time to prevent confusion due to time zone crossing. See the N2229F flight status page for this flight to view local times or setup timezone preferences in your user account.

Time Position Orientation Groundspeed Altitude Reporting Facility
EDT Latitude Longitude Course Direction KTS MPH feet Rate Location/Type
08:01AM 40.9500 -74.3500 180° South 170 196 2,000  Level New York TRACON
08:02AM 40.9000 -74.3500 180° South 197 227 2,500 720 Climbing New York TRACON
08:03AM 40.8667 -74.3333 159° South 168 193 3,400 900 Climbing New York TRACON
08:04AM 40.8167 -74.3167 166° South 159 183 4,300 840 Climbing New York TRACON
08:05AM 40.7833 -74.3167 180° South 151 174 5,100 600 Climbing New York TRACON
08:06AM 40.7333 -74.3000 166° South 165 190 5,500 420 Climbing New York TRACON
08:07AM 40.7000 -74.3000 180° South 155 178 6,000 300 Climbing New York TRACON
08:08AM 40.6500 -74.3000 180° South 183 211 6,100  Climbing New York TRACON
08:09AM 40.6000 -74.2833 166° South 187 215 6,100  Level New York TRACON
08:10AM 40.5500 -74.2833 180° South 188 216 6,100  Level New York TRACON
08:11AM 40.5000 -74.2500 153° Southeast 195 224 6,100 -180 Level New York TRACON
08:12AM 40.4618 -74.2308 159° South  Level FlightAware Approximate
08:19AM 40.1867 -74.1500 180° South  Level FlightAware Approximate
08:20AM 40.1457 -74.1500 180° South  Level FlightAware Approximate
08:21AM 40.1048 -74.1500 180° South  Level FlightAware Approximate
08:22AM 40.0639 -74.1508 182° South  Level FlightAware Approximate
08:23AM 40.0230 -74.1526 182° South  Level FlightAware Approximate
08:24AM 39.9821 -74.1544 182° South  Level FlightAware Approximate
08:25AM 39.9379 -74.1563 182° South  Level FlightAware Approximate
08:26AM 39.8937 -74.1583 182° South  Level FlightAware Approximate
08:26AM 39.7678 -74.3767 180° South 161 185 4,000  Level Washington Center
08:27AM 39.8495 -74.1602 182° South  Level FlightAware Approximate
08:28AM 39.7133 -74.4120 207° Southwest  Level Estimated
08:28AM 39.8053 -74.1621 182° South  Level FlightAware Approximate
08:29AM 39.7611 -74.1640 182° South  Level FlightAware Approximate
08:30AM 39.7169 -74.1659 182° South  Level FlightAware Approximate
08:30AM 39.6064 -74.4844 207° Southwest 172 198 3,300  Level Washington Center
08:31AM 39.6726 -74.1667 180° South  Level FlightAware Approximate
08:32AM 39.5515 -74.5187 232° Southwest  Level Estimated
08:34AM 39.4647 -74.4867 232° Southwest 147 169 2,000  Level Washington Center
08:35AM 39.4576 -74.5772 207° Southwest  Level Estimated
08:36AM 39.4508 -74.5625 257° West  Level FlightAware Approximate
08:39AM 39.4500 -74.5667 232° Southwest  Level FlightAware Approximate
08:39AM 39.4058 -74.4500 257° West 119 137 1,700  Level Washington Center
08:40AM 39.4576 -74.5772 232° Southwest  Level Estimated
08:43AM 39.4486 -74.5542 298° West 72 83 300  Level Washington Center